createdAt,value
2018-07-05T00:02:32.155Z,82.59
2018-07-05T00:05:12.869Z,81.90
2018-07-05T00:07:53.451Z,81.87
2018-07-05T00:10:34.220Z,82.65
2018-07-05T00:13:14.798Z,83.17
2018-07-05T00:15:56.081Z,83.89
2018-07-05T00:18:36.523Z,84.58
2018-07-05T00:21:17.619Z,84.36
2018-07-05T00:23:57.918Z,83.86
2018-07-05T00:26:38.220Z,83.36
2018-07-05T00:29:18.501Z,83.85
2018-07-05T00:31:59.859Z,83.86
2018-07-05T00:34:40.029Z,83.85
2018-07-05T00:37:20.190Z,84.43
2018-07-05T00:40:00.647Z,84.40
2018-07-05T00:42:41.236Z,83.71
2018-07-05T00:45:21.655Z,84.51
2018-07-05T00:48:02.019Z,85.19
2018-07-05T00:50:42.616Z,83.81
2018-07-05T00:53:23.535Z,85.16
2018-07-05T00:56:04.504Z,84.53
2018-07-05T00:58:44.738Z,83.92
2018-07-05T01:01:26.282Z,85.15
2018-07-05T01:04:06.783Z,85.25
2018-07-05T01:06:46.711Z,84.54
2018-07-05T01:09:28.317Z,85.10
2018-07-05T01:12:08.308Z,85.98
2018-07-05T01:14:48.810Z,84.91
2018-07-05T01:17:28.973Z,84.63
2018-07-05T01:20:09.375Z,85.23
2018-07-05T01:22:49.801Z,85.30
2018-07-05T01:25:30.278Z,85.78
2018-07-05T01:28:10.316Z,84.35
2018-07-05T01:30:50.253Z,86.47
2018-07-05T01:33:30.722Z,86.07
2018-07-05T01:36:12.149Z,86.51
2018-07-05T01:38:52.361Z,85.58
2018-07-05T01:41:32.451Z,85.25
2018-07-05T01:44:12.949Z,85.07
2018-07-05T01:46:53.226Z,85.35
2018-07-05T01:49:33.175Z,85.68
2018-07-05T01:52:13.763Z,85.96
2018-07-05T01:54:55.556Z,85.38
2018-07-05T01:57:35.875Z,84.51
2018-07-05T02:00:16.481Z,85.48
2018-07-05T02:02:56.517Z,86.29
2018-07-05T02:05:36.718Z,85.98
2018-07-05T02:08:16.822Z,87.10
2018-07-05T02:10:57.077Z,86.41
2018-07-05T02:13:37.396Z,85.15
2018-07-05T02:16:17.409Z,85.94
2018-07-05T02:18:57.938Z,86.46
2018-07-05T02:21:38.310Z,85.90
2018-07-05T02:24:18.561Z,86.02
2018-07-05T02:26:58.969Z,86.04
2018-07-05T02:29:40.798Z,86.78
2018-07-05T02:32:21.210Z,86.96
2018-07-05T02:35:01.570Z,86.62
2018-07-05T02:37:46.869Z,86.49
2018-07-05T02:40:27.084Z,86.29
2018-07-05T02:43:06.851Z,85.93
2018-07-05T02:45:48.236Z,86.62
2018-07-05T02:48:28.705Z,88.74
2018-07-05T02:51:09.276Z,87.23
2018-07-05T02:53:49.494Z,86.78
2018-07-05T02:56:29.997Z,86.22
2018-07-05T02:59:10.361Z,87.07
2018-07-05T03:01:52.330Z,87.15
2018-07-05T03:04:32.519Z,86.11
2018-07-05T03:07:13.206Z,86.93
2018-07-05T03:09:53.565Z,86.73
2018-07-05T03:12:34.162Z,86.95
2018-07-05T03:15:16.050Z,87.91
2018-07-05T03:17:57.222Z,87.69
2018-07-05T03:20:37.540Z,87.73
2018-07-05T03:23:17.996Z,88.05
2018-07-05T03:25:58.108Z,87.62
2018-07-05T03:28:38.218Z,87.31
2018-07-05T03:31:18.127Z,87.80
2018-07-05T03:33:58.004Z,87.15
2018-07-05T03:36:38.023Z,87.03
2018-07-05T03:39:18.007Z,87.36
2018-07-05T03:41:58.243Z,86.64
2018-07-05T03:44:38.515Z,86.17
2018-07-05T03:47:18.704Z,87.21
2018-07-05T03:49:58.577Z,87.20
2018-07-05T03:52:38.806Z,87.32
2018-07-05T03:55:19.027Z,87.57
2018-07-05T03:57:59.765Z,88.73
2018-07-05T04:00:40.119Z,87.45
2018-07-05T04:03:20.120Z,87.20
2018-07-05T04:06:00.996Z,89.22
2018-07-05T04:08:41.052Z,89.96
2018-07-05T04:11:20.996Z,89.71
2018-07-05T04:14:01.589Z,89.07
2018-07-05T04:16:42.027Z,89.44
2018-07-05T04:19:22.057Z,88.10
2018-07-05T04:22:02.220Z,88.81
2018-07-05T04:24:42.085Z,88.34
2018-07-05T04:27:22.186Z,89.22
2018-07-05T04:30:02.494Z,88.59
2018-07-05T04:32:42.718Z,88.50
2018-07-05T04:35:22.780Z,88.63
2018-07-05T04:38:02.821Z,89.10
2018-07-05T04:40:42.794Z,88.92
2018-07-05T04:43:22.831Z,89.34
2018-07-05T04:46:02.627Z,87.99
2018-07-05T04:48:43.164Z,88.46
2018-07-05T04:51:23.337Z,88.10
2018-07-05T04:54:03.221Z,86.44
2018-07-05T04:56:43.248Z,85.49
2018-07-05T04:59:23.637Z,85.73
2018-07-05T05:02:03.543Z,86.59
2018-07-05T05:04:43.645Z,85.94
2018-07-05T05:07:23.748Z,84.24
2018-07-05T05:10:03.931Z,82.30
2018-07-05T05:12:43.951Z,82.12
2018-07-05T05:15:23.912Z,81.29
2018-07-05T05:18:04.162Z,80.95
2018-07-05T05:20:44.199Z,79.78
2018-07-05T05:23:24.539Z,78.14
2018-07-05T05:26:05.242Z,75.98
2018-07-05T05:28:45.437Z,77.85
2018-07-05T05:31:25.343Z,79.03
2018-07-05T05:34:05.501Z,77.01
2018-07-05T05:36:45.826Z,76.85
2018-07-05T05:39:25.828Z,74.76
2018-07-05T05:42:06.193Z,74.50
2018-07-05T05:44:46.638Z,73.89
2018-07-05T05:47:26.802Z,74.17
2018-07-05T05:50:06.827Z,74.35
2018-07-05T05:52:46.923Z,74.28
2018-07-05T05:55:26.953Z,74.55
2018-07-05T05:58:06.962Z,74.51
2018-07-05T06:00:47.046Z,75.49
2018-07-05T06:03:27.269Z,75.87
2018-07-05T06:06:07.472Z,72.76
2018-07-05T06:08:47.498Z,73.92
2018-07-05T06:11:27.586Z,75.68
2018-07-05T06:14:08.109Z,76.80
2018-07-05T06:16:48.097Z,75.32
2018-07-05T06:19:28.281Z,72.86
2018-07-05T06:22:08.419Z,75.75
2018-07-05T06:24:48.643Z,73.18
2018-07-05T06:27:29.090Z,71.97
2018-07-05T06:30:09.186Z,71.09
2018-07-05T06:32:49.607Z,71.48
2018-07-05T06:35:30.203Z,70.82
2018-07-05T06:38:10.522Z,68.37
2018-07-05T06:40:50.550Z,68.03
2018-07-05T06:43:30.657Z,66.72
2018-07-05T06:46:10.692Z,66.82
2018-07-05T06:48:50.974Z,68.03
2018-07-05T06:51:30.782Z,66.36
2018-07-05T06:54:10.678Z,64.68
2018-07-05T06:56:50.887Z,63.80
2018-07-05T06:59:30.935Z,62.47
2018-07-05T07:02:11.285Z,59.77
2018-07-05T07:04:51.443Z,61.33
2018-07-05T07:07:31.407Z,60.00
2018-07-05T07:10:12.160Z,61.93
2018-07-05T07:12:52.586Z,63.30
2018-07-05T07:15:33.145Z,63.43
2018-07-05T07:18:13.263Z,64.49
2018-07-05T07:20:53.350Z,64.31
2018-07-05T07:23:33.513Z,64.03
2018-07-05T07:26:13.877Z,62.69
2018-07-05T07:28:54.231Z,61.22
2018-07-05T07:31:35.408Z,61.47
2018-07-05T07:34:15.418Z,62.37
2018-07-05T07:36:56.081Z,62.13
2018-07-05T07:39:36.278Z,62.13
2018-07-05T07:42:03.832Z,61.11
2018-07-05T07:44:31.534Z,62.90
2018-07-05T07:46:59.178Z,60.11
2018-07-05T07:49:26.812Z,61.06
2018-07-05T07:51:54.799Z,60.89
2018-07-05T07:54:22.580Z,60.57
2018-07-05T07:56:50.279Z,60.83
2018-07-05T07:59:18.207Z,61.16
2018-07-05T08:01:45.951Z,61.94
2018-07-05T08:04:13.936Z,61.69
2018-07-05T08:06:41.710Z,62.83
2018-07-05T08:09:09.458Z,59.94
2018-07-05T08:11:38.051Z,60.31
2018-07-05T08:14:06.231Z,60.95
2018-07-05T08:16:34.094Z,60.75
2018-07-05T08:19:02.067Z,61.77
2018-07-05T08:21:29.825Z,59.92
2018-07-05T08:23:57.867Z,58.96
2018-07-05T08:26:26.076Z,58.39
2018-07-05T08:28:55.391Z,57.44
2018-07-05T08:31:23.262Z,57.47
2018-07-05T08:33:51.535Z,56.35
2018-07-05T08:36:19.506Z,57.54
2018-07-05T08:38:47.256Z,57.95
2018-07-05T08:41:15.363Z,53.35
2018-07-05T08:43:43.194Z,55.89
2018-07-05T08:46:12.365Z,55.19
2018-07-05T08:48:40.255Z,56.79
2018-07-05T08:51:08.432Z,56.11
2018-07-05T08:53:36.200Z,55.32
2018-07-05T08:56:03.933Z,55.72
2018-07-05T08:58:31.703Z,53.19
2018-07-05T09:00:59.392Z,54.05
2018-07-05T09:03:27.255Z,54.24
2018-07-05T09:05:54.918Z,53.91
2018-07-05T09:08:22.620Z,53.56
2018-07-05T09:10:50.400Z,54.00
2018-07-05T09:13:18.113Z,54.70
2018-07-05T09:15:45.721Z,55.19
2018-07-05T09:18:13.731Z,53.33
2018-07-05T09:20:41.602Z,54.65
2018-07-05T09:23:09.415Z,53.34
2018-07-05T09:25:37.014Z,53.37
2018-07-05T09:28:04.701Z,50.87
2018-07-05T09:30:32.375Z,49.99
2018-07-05T09:33:00.044Z,49.95
2018-07-05T09:35:27.800Z,48.78
2018-07-05T09:37:56.215Z,48.56
2018-07-05T09:40:23.954Z,48.76
2018-07-05T09:42:52.295Z,47.10
2018-07-05T09:45:20.390Z,46.31
2018-07-05T09:47:48.102Z,45.37
2018-07-05T09:50:15.914Z,42.84
2018-07-05T09:52:43.767Z,42.73
2018-07-05T09:55:11.654Z,45.87
2018-07-05T09:57:40.041Z,45.35
2018-07-05T10:00:09.639Z,42.22
2018-07-05T10:02:37.420Z,41.51
2018-07-05T10:05:05.028Z,41.26
2018-07-05T10:07:33.056Z,39.92
2018-07-05T10:10:00.777Z,42.59
2018-07-05T10:12:29.077Z,41.08
2018-07-05T10:14:56.792Z,41.33
2018-07-05T10:17:24.456Z,40.24
2018-07-05T10:19:52.266Z,41.03
2018-07-05T10:22:19.796Z,40.18
2018-07-05T10:24:47.720Z,39.68
2018-07-05T10:27:15.335Z,41.10
2018-07-05T10:29:55.334Z,41.51
2018-07-05T10:32:35.488Z,39.88
2018-07-05T10:35:03.224Z,37.84
2018-07-05T10:37:30.959Z,39.59
2018-07-05T10:40:11.347Z,40.96
2018-07-05T10:42:51.550Z,38.74
2018-07-05T10:45:31.468Z,39.49
2018-07-05T10:48:11.574Z,34.95
2018-07-05T10:50:51.594Z,35.66
2018-07-05T10:53:31.685Z,35.66
2018-07-05T10:56:11.718Z,37.72
2018-07-05T10:58:51.613Z,36.55
2018-07-05T11:01:31.603Z,37.35
2018-07-05T11:04:11.961Z,36.91
2018-07-05T11:06:52.825Z,36.49
2018-07-05T11:09:33.159Z,34.82
2018-07-05T11:12:13.257Z,34.26
2018-07-05T11:14:54.043Z,34.80
2018-07-05T11:17:34.141Z,33.58
2018-07-05T11:20:14.047Z,34.93
2018-07-05T11:22:54.175Z,34.46
2018-07-05T11:25:34.106Z,33.20
2018-07-05T11:28:13.988Z,33.37
2018-07-05T11:30:53.911Z,34.61
2018-07-05T11:33:34.140Z,34.75
2018-07-05T11:36:14.575Z,30.92
2018-07-05T11:38:54.855Z,32.99
2018-07-05T11:41:35.029Z,30.13
2018-07-05T11:44:15.130Z,30.53
2018-07-05T11:46:55.045Z,29.53
2018-07-05T11:49:35.113Z,29.29
2018-07-05T11:52:15.168Z,28.43
2018-07-05T11:54:55.210Z,28.66
2018-07-05T11:57:35.196Z,27.93
2018-07-05T12:00:15.433Z,30.74
2018-07-05T12:02:55.364Z,29.78
2018-07-05T12:05:35.316Z,29.92
2018-07-05T12:08:15.754Z,29.05
2018-07-05T12:10:56.023Z,30.23
2018-07-05T12:13:36.259Z,30.25
2018-07-05T12:16:16.319Z,29.61
2018-07-05T12:18:56.281Z,28.19
2018-07-05T12:21:36.367Z,28.92
2018-07-05T12:24:16.306Z,27.14
2018-07-05T12:26:56.658Z,27.77
2018-07-05T12:29:36.893Z,28.05
2018-07-05T12:32:16.879Z,32.09
2018-07-05T12:34:57.045Z,30.15
2018-07-05T12:37:37.093Z,28.97
2018-07-05T12:40:17.735Z,30.62
2018-07-05T12:42:57.821Z,30.05
2018-07-05T12:45:37.918Z,29.64
2018-07-05T12:48:18.789Z,30.50
2018-07-05T12:50:58.678Z,30.42
2018-07-05T12:53:39.221Z,29.67
2018-07-05T12:56:19.598Z,28.74
2018-07-05T12:58:59.533Z,31.37
2018-07-05T13:01:40.881Z,30.01
2018-07-05T13:04:20.719Z,30.86
2018-07-05T13:07:00.632Z,30.52
2018-07-05T13:09:40.357Z,30.93
2018-07-05T13:12:20.295Z,28.73
2018-07-05T13:15:00.156Z,30.90
2018-07-05T13:17:40.239Z,31.18
2018-07-05T13:20:20.329Z,32.59
2018-07-05T13:23:00.324Z,32.79
2018-07-05T13:25:40.062Z,33.58
2018-07-05T13:28:19.942Z,34.19
2018-07-05T13:30:59.967Z,33.13
2018-07-05T13:33:44.110Z,35.59
2018-07-05T13:36:24.222Z,37.67
2018-07-05T13:39:05.115Z,38.99
2018-07-05T13:41:45.097Z,37.54
2018-07-05T13:44:25.265Z,37.41
2018-07-05T13:47:05.626Z,38.42
2018-07-05T13:49:45.865Z,38.60
2018-07-05T13:52:25.899Z,39.55
2018-07-05T13:55:06.085Z,40.04
2018-07-05T13:57:47.109Z,39.46
2018-07-05T14:00:28.201Z,39.39
2018-07-05T14:03:08.386Z,40.14
2018-07-05T14:05:49.080Z,40.11
2018-07-05T14:08:29.682Z,38.64
2018-07-05T14:11:09.782Z,39.61
2018-07-05T14:13:51.159Z,39.34
2018-07-05T14:16:31.327Z,39.05
2018-07-05T14:19:12.197Z,36.31
2018-07-05T14:21:52.539Z,36.25
2018-07-05T14:24:32.558Z,36.15
2018-07-05T14:27:12.563Z,36.23
2018-07-05T14:29:53.086Z,36.07
2018-07-05T14:32:33.280Z,35.34
2018-07-05T14:35:13.537Z,39.84
2018-07-05T14:37:54.665Z,38.76
2018-07-05T14:40:34.932Z,39.43
2018-07-05T14:43:14.833Z,39.42
2018-07-05T14:45:55.348Z,39.07
2018-07-05T14:48:35.450Z,38.23
2018-07-05T14:51:15.567Z,39.04
2018-07-05T14:53:55.431Z,38.73
2018-07-05T14:56:35.562Z,39.59
2018-07-05T14:59:15.989Z,39.72
2018-07-05T15:01:56.130Z,40.87
2018-07-05T15:04:36.974Z,41.04
2018-07-05T15:07:17.234Z,40.93
2018-07-05T15:09:57.728Z,41.09
2018-07-05T15:12:37.665Z,42.26
2018-07-05T15:15:17.829Z,43.12
2018-07-05T15:17:58.143Z,43.34
2018-07-05T15:20:38.450Z,42.09
2018-07-05T15:23:18.375Z,38.14
2018-07-05T15:25:59.459Z,39.97
2018-07-05T15:28:39.624Z,46.57
2018-07-05T15:31:19.859Z,53.70
2018-07-05T15:34:01.035Z,56.71
2018-07-05T15:36:41.187Z,63.42
2018-07-05T15:39:21.619Z,64.73
2018-07-05T15:42:01.813Z,68.07
2018-07-05T15:44:42.452Z,70.54
2018-07-05T15:47:22.970Z,71.78
2018-07-05T15:50:03.377Z,74.43
2018-07-05T15:52:43.959Z,74.53
2018-07-05T15:55:24.771Z,73.94
2018-07-05T15:58:05.614Z,72.35
2018-07-05T16:00:45.873Z,75.05
2018-07-05T16:03:26.223Z,76.33
2018-07-05T16:06:07.181Z,77.46
2018-07-05T16:08:47.551Z,76.06
2018-07-05T16:11:27.426Z,76.66
2018-07-05T16:14:07.672Z,77.08
2018-07-05T16:16:48.566Z,78.68
2018-07-05T16:19:28.791Z,78.41
2018-07-05T16:22:09.214Z,77.95
2018-07-05T16:24:50.777Z,80.48
2018-07-05T16:27:31.672Z,78.35
2018-07-05T16:30:12.136Z,79.64
2018-07-05T16:32:52.760Z,78.98
2018-07-05T16:35:33.212Z,82.75
2018-07-05T16:38:13.338Z,84.80
2018-07-05T16:40:53.726Z,82.20
2018-07-05T16:43:33.811Z,83.49
2018-07-05T16:46:13.960Z,84.67
2018-07-05T16:48:54.362Z,87.57
2018-07-05T16:51:35.522Z,86.91
2018-07-05T16:54:15.932Z,84.42
2018-07-05T16:56:57.224Z,83.48
2018-07-05T16:59:37.363Z,84.21
2018-07-05T17:02:17.324Z,83.25
2018-07-05T17:04:57.796Z,85.93
2018-07-05T17:07:39.112Z,84.14
2018-07-05T17:10:20.169Z,83.83
2018-07-05T17:13:01.703Z,83.03
2018-07-05T17:15:42.050Z,85.66
2018-07-05T17:18:23.450Z,87.50
2018-07-05T17:21:03.539Z,88.81
2018-07-05T17:23:44.058Z,85.87
2018-07-05T17:26:24.401Z,84.18
2018-07-05T17:29:04.952Z,84.59
2018-07-05T17:31:44.879Z,84.14
2018-07-05T17:34:25.169Z,84.49
2018-07-05T17:37:06.589Z,84.14
2018-07-05T17:39:47.297Z,85.47
2018-07-05T17:42:27.705Z,87.32
2018-07-05T17:45:07.889Z,86.17
2018-07-05T17:47:48.358Z,85.91
2018-07-05T17:50:28.763Z,88.15
2018-07-05T17:53:09.543Z,87.52
2018-07-05T17:55:50.478Z,87.84
2018-07-05T17:58:31.227Z,87.62
2018-07-05T18:01:11.855Z,87.46
2018-07-05T18:03:52.479Z,88.07
2018-07-05T18:06:33.996Z,86.64
2018-07-05T18:09:13.983Z,87.90
2018-07-05T18:11:54.291Z,88.22
2018-07-05T18:14:34.120Z,88.13
2018-07-05T18:17:14.069Z,87.25
2018-07-05T18:19:53.932Z,89.52
2018-07-05T18:22:33.876Z,88.41
2018-07-05T18:25:14.124Z,91.56
2018-07-05T18:27:54.268Z,89.68
2018-07-05T18:30:34.617Z,89.25
2018-07-05T18:33:14.585Z,88.42
2018-07-05T18:35:54.756Z,88.35
2018-07-05T18:38:34.783Z,89.48
2018-07-05T18:41:14.841Z,88.37
2018-07-05T18:43:55.141Z,89.69
2018-07-05T18:46:35.574Z,88.22
2018-07-05T18:49:16.495Z,89.42
2018-07-05T18:51:57.047Z,90.56
2018-07-05T18:54:38.930Z,91.39
2018-07-05T18:57:19.287Z,91.08
2018-07-05T18:59:59.926Z,91.08
2018-07-05T19:02:41.189Z,89.39
2018-07-05T19:05:23.098Z,89.30
2018-07-05T19:08:03.489Z,90.68
2018-07-05T19:10:45.828Z,92.15
2018-07-05T19:13:26.147Z,90.21
2018-07-05T19:16:06.430Z,90.83
2018-07-05T19:18:47.111Z,90.35
2018-07-05T19:21:31.771Z,90.59
2018-07-05T19:24:12.229Z,90.63
2018-07-05T19:26:52.538Z,90.23
2018-07-05T19:29:32.917Z,90.90
2018-07-05T19:32:14.336Z,89.37
2018-07-05T19:34:55.422Z,90.49
2018-07-05T19:37:36.150Z,90.25
2018-07-05T19:40:20.412Z,90.51
2018-07-05T19:43:00.949Z,94.20
2018-07-05T19:45:41.512Z,91.33
2018-07-05T19:48:21.942Z,90.92
2018-07-05T19:51:02.028Z,90.63
2018-07-05T19:53:42.295Z,90.27
2018-07-05T19:56:22.309Z,91.35
2018-07-05T19:59:03.111Z,91.88
2018-07-05T20:01:43.528Z,91.65
2018-07-05T20:04:23.995Z,92.34
2018-07-05T20:07:04.263Z,91.79
2018-07-05T20:09:44.345Z,92.98
2018-07-05T20:12:24.294Z,93.98
2018-07-05T20:15:04.730Z,92.02
2018-07-05T20:17:45.737Z,92.86
2018-07-05T20:20:26.612Z,93.54
2018-07-05T20:23:07.591Z,93.99
2018-07-05T20:25:47.520Z,92.68
2018-07-05T20:28:27.615Z,93.55
2018-07-05T20:31:08.948Z,91.86
2018-07-05T20:33:48.947Z,92.35
2018-07-05T20:36:29.386Z,93.54
2018-07-05T20:39:10.419Z,93.10
2018-07-05T20:41:50.904Z,92.67
2018-07-05T20:44:32.119Z,93.46
2018-07-05T20:47:11.953Z,94.76
2018-07-05T20:49:51.869Z,95.85
2018-07-05T20:52:32.180Z,95.71
2018-07-05T20:55:12.171Z,95.22
2018-07-05T20:57:52.188Z,95.57
2018-07-05T21:00:32.215Z,93.30
2018-07-05T21:03:12.508Z,93.76
2018-07-05T21:05:52.418Z,94.02
2018-07-05T21:08:32.290Z,93.20
2018-07-05T21:11:12.142Z,93.29
2018-07-05T21:13:52.959Z,93.97
2018-07-05T21:16:33.137Z,95.78
2018-07-05T21:19:13.305Z,96.03
2018-07-05T21:21:53.525Z,96.77
2018-07-05T21:24:33.596Z,95.81
2018-07-05T21:27:13.611Z,96.26
2018-07-05T21:29:53.731Z,94.82
2018-07-05T21:32:33.842Z,94.50
2018-07-05T21:35:13.729Z,93.52
2018-07-05T21:37:53.686Z,94.51
2018-07-05T21:40:33.714Z,96.32
2018-07-05T21:43:13.875Z,95.38
2018-07-05T21:45:53.933Z,96.08
2018-07-05T21:48:34.102Z,96.29
2018-07-05T21:51:14.045Z,96.52
2018-07-05T21:53:54.258Z,95.97
2018-07-05T21:56:35.600Z,95.56
2018-07-05T21:59:15.424Z,95.18
2018-07-05T22:01:55.440Z,95.21
2018-07-05T22:04:36.034Z,95.41
2018-07-05T22:07:16.233Z,96.22
2018-07-05T22:09:56.431Z,95.92
2018-07-05T22:12:36.286Z,94.52
2018-07-05T22:15:17.366Z,96.04
2018-07-05T22:18:02.347Z,95.33
2018-07-05T22:20:47.726Z,96.19
2018-07-05T22:23:32.973Z,95.19
2018-07-05T22:26:18.687Z,95.81
2018-07-05T22:29:04.078Z,94.97
2018-07-05T22:31:45.201Z,94.78
2018-07-05T22:34:25.605Z,94.77
2018-07-05T22:37:05.953Z,94.75
2018-07-05T22:39:46.337Z,95.90
2018-07-05T22:42:26.481Z,97.45
2018-07-05T22:45:07.392Z,97.36
2018-07-05T22:47:47.571Z,95.94
2018-07-05T22:50:27.857Z,95.91
2018-07-05T22:53:07.667Z,96.09
2018-07-05T22:55:47.867Z,96.70
2018-07-05T22:58:29.002Z,95.10
2018-07-05T23:01:08.942Z,96.20
2018-07-05T23:03:48.794Z,95.31
2018-07-05T23:06:28.986Z,94.82
2018-07-05T23:09:09.062Z,96.21
2018-07-05T23:11:49.216Z,95.40
2018-07-05T23:14:29.366Z,95.89
2018-07-05T23:17:09.389Z,95.71
2018-07-05T23:19:49.186Z,95.75
2018-07-05T23:22:29.072Z,96.58
2018-07-05T23:25:09.270Z,96.29
2018-07-05T23:27:49.324Z,96.77
2018-07-05T23:30:29.392Z,95.58
2018-07-05T23:33:09.547Z,95.52
2018-07-05T23:35:49.523Z,95.77
2018-07-05T23:38:29.452Z,95.09
2018-07-05T23:41:09.551Z,96.38
2018-07-05T23:43:49.747Z,95.66
2018-07-05T23:46:29.700Z,96.16
2018-07-05T23:49:09.812Z,96.48
2018-07-05T23:51:50.313Z,95.85
2018-07-05T23:54:30.466Z,96.29
2018-07-05T23:57:10.615Z,96.30
2018-07-05T23:59:50.527Z,97.18
